Fort Lauderdale, Florida
Current Conditions -  °F | °C
As of 2:53 AM on Friday 24 Oct 2014 (Local Time) from KFLL Reporting Station
Overcast Overcast  
Wind Chill: 79°   Ceiling: 3400
Heat Index: 81°   Visibility: 10mi
Dew Point: 68°   Wind: 15mph
Humidity: 69%   Direction: 50°NE
Pressure: 29.85"   Gusts: 21mph
Location:  26.12°N, 80.15°W
Report Text: KFLL 240653Z 05013G18KT 10SM SCT028 OVC034 26/20 A2985 RMK AO2 SLP106 T02610200
Loading
Personal Weather Stations






























Interactive Weather Map
Tropical Storm Tracking
New forecast layout! Learn more

10-Day Weather Forecast

Advertisements
Track Severe Weather on mobile